Time;durP1;ratioP1;P1;durP2;ratioP2;P2;SDS_P1;SDS_P2;PMS_P1;PMS_P2;Temp;Humidity;BMP_temperature;BMP_pressure;BME280_temperature;BME280_humidity;BME280_pressure;Samples;Min_cycle;Max_cycle;Signal;HPM_P1;HPM_P2
2024/02/28 00:04:36;;;;;;;89.60;32.60;;;;;;;10.21;96.14;100425.75;681296;1267;139701;-78
2024/02/28 00:19:39;;;;;;;81.60;27.50;;;;;;;10.17;96.62;100440.33;681417;1262;141478;-78
2024/02/28 00:34:44;;;;;;;73.70;22.50;;;;;;;10.12;96.96;100449.34;681496;1266;140164;-78
2024/02/28 00:49:47;;;;;;;74.20;30.20;;;;;;;10.07;97.15;100427.07;681293;1267;140230;-78
2024/02/28 01:04:50;;;;;;;60.20;21.10;;;;;;;10.07;96.85;100429.33;681571;1267;139092;-78
2024/02/28 01:19:54;;;;;;;82.40;32.10;;;;;;;10.01;96.94;100430.31;681640;1267;138775;-77
2024/02/28 01:34:58;;;;;;;65.10;22.90;;;;;;;9.94;96.79;100419.34;681630;1261;139401;-78
2024/02/28 01:50:02;;;;;;;60.50;21.60;;;;;;;9.84;97.51;100421.95;681494;1261;138738;-78
2024/02/28 02:05:05;;;;;;;60.70;20.30;;;;;;;9.70;97.80;100420.25;681412;1264;140194;-77
2024/02/28 02:20:15;;;;;;;54.40;19.40;;;;;;;9.62;98.45;100415.91;681600;1263;138903;-77
2024/02/28 02:35:18;;;;;;;58.90;21.90;;;;;;;9.50;98.62;100407.65;681289;1268;139553;-78
2024/02/28 02:50:22;;;;;;;56.90;19.80;;;;;;;9.53;98.69;100415.20;681410;1265;139735;-78
2024/02/28 03:05:26;;;;;;;58.30;18.60;;;;;;;9.52;99.11;100418.09;681347;1264;139530;-78
2024/02/28 03:20:29;;;;;;;58.40;19.80;;;;;;;9.56;98.48;100425.09;681451;1262;139526;-78
2024/02/28 03:35:33;;;;;;;48.00;19.70;;;;;;;9.55;98.74;100438.61;681325;1266;138985;-78
2024/02/28 03:50:37;;;;;;;53.80;18.40;;;;;;;9.55;98.61;100446.35;681265;1261;223880;-78
2024/02/28 04:05:42;;;;;;;48.20;15.60;;;;;;;9.48;98.49;100457.50;681412;1264;139512;-78
2024/02/28 04:20:48;;;;;;;46.50;18.40;;;;;;;9.45;97.86;100449.17;681522;1262;138922;-78
2024/02/28 04:35:52;;;;;;;47.80;18.20;;;;;;;9.43;98.34;100442.25;681319;1262;139124;-78
2024/02/28 04:50:55;;;;;;;40.20;17.30;;;;;;;9.37;98.53;100435.48;681419;1265;140152;-78
2024/02/28 05:06:00;;;;;;;57.60;23.90;;;;;;;9.35;98.56;100429.77;681439;1263;139216;-78
2024/02/28 05:21:04;;;;;;;46.20;21.40;;;;;;;9.28;98.65;100432.25;681544;1263;138987;-78
2024/02/28 05:36:09;;;;;;;103.80;43.40;;;;;;;9.28;99.33;100442.38;681383;1265;139224;-79
2024/02/28 05:51:13;;;;;;;63.50;26.10;;;;;;;9.31;99.30;100437.60;681435;1265;139442;-79
2024/02/28 06:06:17;;;;;;;82.60;32.40;;;;;;;9.38;99.63;100442.91;681596;1262;139282;-78
2024/02/28 06:21:23;;;;;;;91.20;41.80;;;;;;;9.49;99.55;100460.22;681849;1264;139051;-78
2024/02/28 06:36:26;;;;;;;88.00;36.20;;;;;;;9.55;99.68;100463.58;681500;1264;139448;-79
2024/02/28 06:51:30;;;;;;;95.60;41.00;;;;;;;9.65;100.00;100463.16;681791;1262;139484;-79
2024/02/28 07:06:35;;;;;;;47.20;20.80;;;;;;;9.63;99.78;100474.29;681581;1262;139857;-78
2024/02/28 07:21:39;;;;;;;78.20;32.80;;;;;;;9.71;99.80;100487.27;681722;1267;138942;-78
2024/02/28 07:36:48;;;;;;;44.70;23.50;;;;;;;9.74;99.43;100492.95;681392;1269;138716;-77
2024/02/28 07:51:53;;;;;;;59.20;25.70;;;;;;;9.77;99.66;100500.91;681626;1266;138532;-78
2024/02/28 08:07:06;;;;;;;80.90;37.80;;;;;;;9.73;99.47;100506.04;681813;1264;139642;-79
2024/02/28 08:22:10;;;;;;;122.60;48.80;;;;;;;9.77;99.87;100517.00;681686;1269;139305;-80
2024/02/28 08:37:17;;;;;;;174.20;66.50;;;;;;;9.74;99.31;100523.37;681542;1266;140417;-80
2024/02/28 08:52:21;;;;;;;87.40;41.80;;;;;;;9.83;99.57;100531.72;681704;1267;139396;-79
2024/02/28 09:07:25;;;;;;;87.00;42.70;;;;;;;9.86;99.33;100547.52;681659;1265;139174;-79
2024/02/28 09:22:30;;;;;;;35.70;18.50;;;;;;;9.87;99.65;100564.29;681734;1267;140499;-79
2024/02/28 09:37:34;;;;;;;37.10;18.10;;;;;;;9.80;99.37;100567.93;681718;1264;138927;-80
2024/02/28 09:52:37;;;;;;;31.10;15.40;;;;;;;9.94;99.21;100572.98;681712;1265;138858;-79
2024/02/28 10:07:49;;;;;;;23.30;11.70;;;;;;;10.03;99.24;100576.00;681703;1266;139314;-80
2024/02/28 10:22:53;;;;;;;48.20;23.90;;;;;;;10.43;98.94;100573.14;681800;1266;138968;-79
2024/02/28 10:37:57;;;;;;;29.10;16.90;;;;;;;10.56;99.26;100592.45;681573;1266;140275;-79
2024/02/28 10:53:05;;;;;;;25.60;13.90;;;;;;;10.36;98.80;100617.30;681673;1265;138732;-76
2024/02/28 11:08:20;;;;;;;35.30;17.30;;;;;;;10.17;99.31;100625.27;681666;1265;139627;-78
2024/02/28 11:23:26;;;;;;;30.10;16.40;;;;;;;10.04;99.02;100626.31;681507;1266;139921;-78
2024/02/28 11:38:31;;;;;;;21.40;11.20;;;;;;;9.92;98.99;100635.65;681626;1263;140013;-79
2024/02/28 11:53:35;;;;;;;21.10;10.50;;;;;;;9.73;99.09;100646.73;681588;1265;139714;-80
2024/02/28 12:08:38;;;;;;;23.50;12.20;;;;;;;9.74;98.64;100648.90;681696;1266;139381;-79
2024/02/28 12:23:42;;;;;;;43.50;22.00;;;;;;;10.02;99.44;100639.03;681429;1266;138712;-80
2024/02/28 12:38:46;;;;;;;26.40;13.30;;;;;;;10.35;99.39;100636.61;681759;1274;139624;-76
2024/02/28 12:53:51;;;;;;;32.30;16.20;;;;;;;10.73;99.49;100642.44;681617;1274;140118;-79
2024/02/28 13:08:57;;;;;;;227.60;83.50;;;;;;;10.37;97.92;100654.05;681632;1269;139061;-81
2024/02/28 13:24:04;;;;;;;68.20;40.70;;;;;;;10.11;98.04;100660.73;681558;1263;139462;-78
2024/02/28 13:39:11;;;;;;;49.60;28.40;;;;;;;9.97;98.51;100670.76;681708;1266;140767;-77
2024/02/28 13:54:21;;;;;;;27.30;14.90;;;;;;;9.91;98.56;100681.82;681489;1265;140133;-78
2024/02/28 14:09:26;;;;;;;36.00;18.50;;;;;;;9.86;98.43;100693.65;681710;1267;140099;-77
2024/02/28 14:24:30;;;;;;;34.00;15.70;;;;;;;9.88;98.59;100696.24;681552;1272;139814;-78
2024/02/28 14:39:34;;;;;;;24.50;14.60;;;;;;;9.78;98.18;100697.20;681705;1265;140597;-77
2024/02/28 14:54:39;;;;;;;42.80;21.40;;;;;;;9.67;98.03;100714.11;681591;1266;138905;-78
2024/02/28 15:09:44;;;;;;;64.70;30.80;;;;;;;9.56;98.07;100725.06;681618;1262;138823;-78
2024/02/28 15:24:48;;;;;;;93.50;40.10;;;;;;;9.42;98.33;100748.27;681588;1262;139462;-79
2024/02/28 15:39:55;;;;;;;112.30;44.90;;;;;;;9.28;98.95;100750.02;681598;1262;139614;-81
2024/02/28 15:54:59;;;;;;;54.00;24.30;;;;;;;9.28;99.55;100765.61;673868;1263;10141254;-80
2024/02/28 16:10:06;;;;;;;69.60;28.40;;;;;;;9.14;99.01;100780.55;681643;1262;139416;-79
2024/02/28 16:25:10;;;;;;;45.20;19.60;;;;;;;9.12;99.19;100790.88;681528;1262;139502;-79
2024/02/28 16:40:15;;;;;;;62.40;31.60;;;;;;;8.99;99.41;100801.22;681803;1262;140761;-78
2024/02/28 16:55:20;;;;;;;50.00;24.40;;;;;;;9.00;99.21;100814.94;681559;1262;139464;-78
2024/02/28 17:10:26;;;;;;;74.10;29.60;;;;;;;8.98;99.58;100819.64;681758;1262;138907;-79
2024/02/28 17:25:29;;;;;;;64.30;28.00;;;;;;;8.92;99.62;100825.30;681730;1260;139610;-79
2024/02/28 17:40:33;;;;;;;71.50;28.70;;;;;;;8.88;99.64;100836.92;682107;1262;138827;-79
2024/02/28 17:55:37;;;;;;;129.90;47.20;;;;;;;8.82;99.56;100853.54;681761;1261;139545;-79
2024/02/28 18:10:42;;;;;;;77.20;34.50;;;;;;;8.78;99.56;100873.39;681831;1261;140402;-80
2024/02/28 18:25:45;;;;;;;80.90;31.20;;;;;;;8.79;99.83;100875.88;681671;1261;139725;-79
2024/02/28 18:40:49;;;;;;;51.90;20.80;;;;;;;8.77;99.69;100884.58;681822;1262;139969;-79
2024/02/28 18:55:53;;;;;;;65.80;27.90;;;;;;;8.72;99.98;100889.52;681709;1262;139387;-78
2024/02/28 19:10:58;;;;;;;101.70;40.60;;;;;;;8.67;99.73;100899.90;681651;1265;138794;-79
2024/02/28 19:26:01;;;;;;;80.40;35.10;;;;;;;8.77;99.52;100918.24;681583;1262;139386;-79
2024/02/28 19:41:05;;;;;;;70.00;32.20;;;;;;;8.81;99.61;100925.77;681757;1262;138636;-80
2024/02/28 19:56:09;;;;;;;72.30;31.00;;;;;;;8.82;99.53;100927.86;681576;1262;139213;-80
2024/02/28 20:11:15;;;;;;;73.50;32.50;;;;;;;8.80;99.69;100930.11;681513;1264;139513;-80
2024/02/28 20:26:20;;;;;;;58.20;23.90;;;;;;;8.74;99.48;100934.36;681881;1262;139808;-78
2024/02/28 20:41:24;;;;;;;55.30;22.20;;;;;;;8.72;99.93;100945.48;681728;1265;140292;-78
2024/02/28 20:56:28;;;;;;;51.70;23.70;;;;;;;8.68;99.92;100962.14;681757;1262;138879;-79
2024/02/28 21:11:33;;;;;;;56.30;23.20;;;;;;;8.61;100.00;100982.70;681668;1262;139157;-78
2024/02/28 21:26:37;;;;;;;48.20;19.60;;;;;;;8.57;99.95;100993.63;681813;1262;140297;-78
2024/02/28 21:41:41;;;;;;;68.80;26.00;;;;;;;8.43;99.84;101004.77;681688;1262;139494;-77
2024/02/28 21:56:44;;;;;;;83.20;27.20;;;;;;;8.39;99.46;101007.66;681768;1265;138749;-78
2024/02/28 22:11:49;;;;;;;68.20;22.60;;;;;;;8.34;98.96;101012.72;681656;1262;140064;-78
2024/02/28 22:26:54;;;;;;;43.60;19.70;;;;;;;8.30;98.91;101013.64;681695;1267;139730;-78
2024/02/28 22:41:58;;;;;;;45.70;19.30;;;;;;;8.30;98.59;101024.95;681634;1265;139295;-79
2024/02/28 22:57:02;;;;;;;47.50;20.20;;;;;;;8.26;98.34;101023.50;681699;1262;140411;-78
2024/02/28 23:12:06;;;;;;;41.40;19.00;;;;;;;8.26;98.13;101034.65;681653;1262;139461;-78
2024/02/28 23:27:10;;;;;;;47.10;20.80;;;;;;;8.32;97.70;101043.64;681797;1267;139050;-78
2024/02/28 23:42:14;;;;;;;56.90;22.80;;;;;;;8.32;97.34;101047.83;681675;1262;140573;-78
2024/02/28 23:57:17;;;;;;;53.70;21.10;;;;;;;8.26;97.26;101060.48;681687;1265;139154;-78
